SLM421 KMIA-SYCJ
Flight info
| Callsign | SLM421 |
|---|---|
| Flight time | N/A |
| Altitude | 35000 |
| Route | KLADA2 JAGOR DCT RUMFO Y396 MALVN UL343 SATOE L343 ANADA UL452 MINDA UA324 ORANI/N0404F230 A324 EDMEK |
| Aircraft | B738/M-SDE2E3FGHIRWXY/LB1 |
Departure
| Time | N/A |
|---|---|
| Airport | Miami International Airport (KMIA) |
Arrival
| Time | 2026-04-27 22:32 |
|---|---|
| Airport | Cheddi Jagan International Airport (SYCJ) |
| Time | Latitude | Longitude | Altitude | Speed | Heading |
|---|---|---|---|---|---|
| 2026-04-27 22:02 | 8.29828 | -59.67152 | 36957 ft | 438 kts | 142° |
| 2026-04-27 22:03 | 8.27428 | -59.65266 | 36952 ft | 438 kts | 142° |
| 2026-04-27 22:03 | 8.22579 | -59.61454 | 36956 ft | 443 kts | 142° |
| 2026-04-27 22:04 | 8.17715 | -59.57630 | 36970 ft | 448 kts | 142° |
| 2026-04-27 22:04 | 8.12771 | -59.53744 | 36965 ft | 451 kts | 142° |
| 2026-04-27 22:05 | 8.07797 | -59.49836 | 36959 ft | 453 kts | 142° |
| 2026-04-27 22:05 | 8.02873 | -59.45969 | 36786 ft | 439 kts | 142° |
| 2026-04-27 22:05 | 8.00472 | -59.44083 | 36317 ft | 436 kts | 142° |
| 2026-04-27 22:06 | 7.98069 | -59.42197 | 35706 ft | 438 kts | 141° |
| 2026-04-27 22:06 | 7.95654 | -59.40301 | 35060 ft | 440 kts | 141° |
| 2026-04-27 22:06 | 7.93233 | -59.38400 | 34432 ft | 442 kts | 141° |
| 2026-04-27 22:06 | 7.90839 | -59.36521 | 33934 ft | 441 kts | 141° |
| 2026-04-27 22:07 | 7.88431 | -59.34632 | 33522 ft | 436 kts | 141° |
| 2026-04-27 22:07 | 7.86050 | -59.32764 | 33106 ft | 431 kts | 141° |
| 2026-04-27 22:07 | 7.83700 | -59.30922 | 32567 ft | 423 kts | 141° |
| 2026-04-27 22:07 | 7.81389 | -59.29109 | 31854 ft | 421 kts | 141° |
| 2026-04-27 22:08 | 7.79077 | -59.27295 | 31128 ft | 419 kts | 141° |
| 2026-04-27 22:08 | 7.76782 | -59.25495 | 30465 ft | 416 kts | 141° |
| 2026-04-27 22:08 | 7.74501 | -59.23707 | 29824 ft | 412 kts | 141° |
| 2026-04-27 22:08 | 7.72256 | -59.21947 | 29138 ft | 407 kts | 141° |
| 2026-04-27 22:09 | 7.70037 | -59.20208 | 28467 ft | 401 kts | 141° |
| 2026-04-27 22:09 | 7.67841 | -59.18487 | 27796 ft | 398 kts | 141° |
| 2026-04-27 22:09 | 7.65660 | -59.16778 | 27185 ft | 394 kts | 141° |
| 2026-04-27 22:09 | 7.63533 | -59.15112 | 26642 ft | 390 kts | 141° |
| 2026-04-27 22:10 | 7.61406 | -59.13445 | 26086 ft | 386 kts | 141° |
| 2026-04-27 22:10 | 7.59976 | -59.12325 | 25709 ft | 383 kts | 141° |
| 2026-04-27 22:10 | 7.57204 | -59.10153 | 24997 ft | 380 kts | 140° |
| 2026-04-27 22:10 | 7.55118 | -59.08519 | 24543 ft | 379 kts | 140° |
| 2026-04-27 22:11 | 7.53033 | -59.06886 | 24120 ft | 378 kts | 140° |
| 2026-04-27 22:11 | 7.50954 | -59.05258 | 23702 ft | 377 kts | 140° |
| 2026-04-27 22:11 | 7.48885 | -59.03639 | 23247 ft | 376 kts | 140° |
| 2026-04-27 22:11 | 7.46823 | -59.02025 | 22821 ft | 373 kts | 140° |
| 2026-04-27 22:12 | 7.44806 | -59.00449 | 22432 ft | 369 kts | 140° |
| 2026-04-27 22:12 | 7.42782 | -58.98867 | 22024 ft | 367 kts | 140° |
| 2026-04-27 22:12 | 7.40770 | -58.97294 | 21630 ft | 364 kts | 140° |
| 2026-04-27 22:12 | 7.38771 | -58.95731 | 21227 ft | 362 kts | 140° |
| 2026-04-27 22:13 | 7.36790 | -58.94183 | 20844 ft | 360 kts | 140° |
| 2026-04-27 22:13 | 7.34821 | -58.92642 | 20457 ft | 358 kts | 140° |
| 2026-04-27 22:13 | 7.32860 | -58.91110 | 20067 ft | 356 kts | 140° |
| 2026-04-27 22:13 | 7.30909 | -58.89584 | 19687 ft | 355 kts | 140° |
| 2026-04-27 22:14 | 7.28956 | -58.88057 | 19276 ft | 354 kts | 140° |
| 2026-04-27 22:14 | 7.27017 | -58.86541 | 18884 ft | 353 kts | 140° |
| 2026-04-27 22:14 | 7.25076 | -58.85025 | 18495 ft | 352 kts | 140° |
| 2026-04-27 22:14 | 7.23142 | -58.83513 | 18080 ft | 352 kts | 140° |
| 2026-04-27 22:15 | 7.21214 | -58.82007 | 17661 ft | 350 kts | 140° |
| 2026-04-27 22:15 | 7.19292 | -58.80506 | 17262 ft | 348 kts | 140° |
| 2026-04-27 22:15 | 7.17407 | -58.79032 | 16879 ft | 346 kts | 140° |
| 2026-04-27 22:15 | 7.15500 | -58.77544 | 16492 ft | 344 kts | 140° |
| 2026-04-27 22:16 | 7.13615 | -58.76071 | 16115 ft | 342 kts | 140° |
| 2026-04-27 22:16 | 7.11740 | -58.74606 | 15738 ft | 340 kts | 140° |
| 2026-04-27 22:16 | 7.09874 | -58.73150 | 15365 ft | 339 kts | 140° |
| 2026-04-27 22:16 | 7.08013 | -58.71697 | 14991 ft | 337 kts | 140° |
| 2026-04-27 22:17 | 7.06163 | -58.70252 | 14612 ft | 336 kts | 140° |
| 2026-04-27 22:17 | 7.04340 | -58.68829 | 14241 ft | 335 kts | 140° |
| 2026-04-27 22:17 | 7.02475 | -58.67373 | 13872 ft | 334 kts | 140° |
| 2026-04-27 22:17 | 7.00667 | -58.65961 | 13457 ft | 333 kts | 140° |
| 2026-04-27 22:18 | 6.98846 | -58.64537 | 13072 ft | 331 kts | 140° |
| 2026-04-27 22:18 | 6.97029 | -58.63118 | 12689 ft | 328 kts | 140° |
| 2026-04-27 22:18 | 6.95230 | -58.61713 | 12321 ft | 326 kts | 140° |
| 2026-04-27 22:18 | 6.93440 | -58.60316 | 11951 ft | 324 kts | 140° |
| 2026-04-27 22:19 | 6.91661 | -58.58929 | 11587 ft | 322 kts | 140° |
| 2026-04-27 22:19 | 6.89897 | -58.57553 | 11230 ft | 320 kts | 140° |
| 2026-04-27 22:19 | 6.88177 | -58.56210 | 10863 ft | 319 kts | 140° |
| 2026-04-27 22:19 | 6.86430 | -58.54839 | 10614 ft | 313 kts | 140° |
| 2026-04-27 22:20 | 6.84721 | -58.53495 | 10328 ft | 309 kts | 140° |
| 2026-04-27 22:20 | 6.83049 | -58.52184 | 10163 ft | 302 kts | 140° |
| 2026-04-27 22:20 | 6.81414 | -58.50903 | 10028 ft | 293 kts | 140° |
| 2026-04-27 22:20 | 6.79818 | -58.49650 | 9885 ft | 286 kts | 140° |
| 2026-04-27 22:21 | 6.78272 | -58.48436 | 9562 ft | 285 kts | 140° |
| 2026-04-27 22:21 | 6.76714 | -58.47211 | 9251 ft | 283 kts | 139° |
| 2026-04-27 22:21 | 6.75167 | -58.45994 | 8932 ft | 282 kts | 139° |
| 2026-04-27 22:21 | 6.73632 | -58.44789 | 8630 ft | 276 kts | 139° |
| 2026-04-27 22:22 | 6.72138 | -58.43616 | 8352 ft | 275 kts | 139° |
| 2026-04-27 22:22 | 6.70636 | -58.42436 | 8060 ft | 273 kts | 140° |
| 2026-04-27 22:22 | 6.69141 | -58.41262 | 7775 ft | 272 kts | 140° |
| 2026-04-27 22:22 | 6.67655 | -58.40095 | 7497 ft | 271 kts | 140° |
| 2026-04-27 22:23 | 6.66089 | -58.39045 | 7192 ft | 273 kts | 156° |
| 2026-04-27 22:23 | 6.64211 | -58.38770 | 6925 ft | 277 kts | 184° |
| 2026-04-27 22:23 | 6.62375 | -58.39378 | 6646 ft | 282 kts | 210° |
| 2026-04-27 22:23 | 6.60795 | -58.40562 | 6372 ft | 283 kts | 217° |
| 2026-04-27 22:24 | 6.59230 | -58.41749 | 6039 ft | 282 kts | 210° |
| 2026-04-27 22:24 | 6.57534 | -58.42723 | 5732 ft | 279 kts | 203° |
| 2026-04-27 22:24 | 6.55741 | -58.43464 | 5447 ft | 277 kts | 195° |
| 2026-04-27 22:24 | 6.53920 | -58.43982 | 5171 ft | 274 kts | 190° |
| 2026-04-27 22:25 | 6.52048 | -58.44317 | 4891 ft | 271 kts | 184° |
| 2026-04-27 22:25 | 6.50173 | -58.44464 | 4614 ft | 269 kts | 178° |
| 2026-04-27 22:25 | 6.48306 | -58.44422 | 4317 ft | 266 kts | 172° |
| 2026-04-27 22:25 | 6.46479 | -58.44192 | 4062 ft | 263 kts | 166° |
| 2026-04-27 22:26 | 6.44728 | -58.43787 | 3943 ft | 254 kts | 161° |
| 2026-04-27 22:26 | 6.43096 | -58.43236 | 3845 ft | 244 kts | 156° |
| 2026-04-27 22:26 | 6.41583 | -58.42563 | 3743 ft | 231 kts | 150° |
| 2026-04-27 22:26 | 6.40212 | -58.41807 | 3615 ft | 218 kts | 146° |
| 2026-04-27 22:27 | 6.38979 | -58.41002 | 3505 ft | 205 kts | 139° |
| 2026-04-27 22:27 | 6.37992 | -58.40025 | 3315 ft | 193 kts | 114° |
| 2026-04-27 22:27 | 6.37712 | -58.39206 | 3238 ft | 184 kts | 95° |
| 2026-04-27 22:27 | 6.37906 | -58.37989 | 3012 ft | 175 kts | 59° |
| 2026-04-27 22:28 | 6.38583 | -58.37000 | 2840 ft | 169 kts | 52° |
| 2026-04-27 22:28 | 6.39528 | -58.35813 | 2638 ft | 157 kts | 50° |
| 2026-04-27 22:28 | 6.40026 | -58.35258 | 2535 ft | 160 kts | 47° |
| 2026-04-27 22:28 | 6.40819 | -58.34446 | 2323 ft | 163 kts | 46° |
| 2026-04-27 22:29 | 6.41617 | -58.33648 | 2086 ft | 160 kts | 46° |
| 2026-04-27 22:29 | 6.42395 | -58.32870 | 1897 ft | 155 kts | 46° |
| 2026-04-27 22:29 | 6.43141 | -58.32126 | 1686 ft | 150 kts | 47° |
| 2026-04-27 22:29 | 6.43871 | -58.31398 | 1531 ft | 143 kts | 46° |
| 2026-04-27 22:30 | 6.44585 | -58.30685 | 1289 ft | 144 kts | 46° |
| 2026-04-27 22:30 | 6.45298 | -58.29973 | 1116 ft | 144 kts | 48° |
| 2026-04-27 22:30 | 6.46019 | -58.29252 | 968 ft | 148 kts | 45° |
| 2026-04-27 22:30 | 6.46760 | -58.28518 | 725 ft | 156 kts | 46° |
| 2026-04-27 22:31 | 6.47528 | -58.27755 | 577 ft | 154 kts | 47° |
| 2026-04-27 22:31 | 6.48270 | -58.26997 | 310 ft | 148 kts | 46° |
| 2026-04-27 22:31 | 6.48980 | -58.26288 | 121 ft | 140 kts | 47° |
| 2026-04-27 22:31 | 6.49611 | -58.25657 | 105 ft | 108 kts | 45° |
| 2026-04-27 22:32 | 6.50039 | -58.25230 | 103 ft | 65 kts | 46° |
| 2026-04-27 22:32 | 6.50232 | -58.25037 | 101 ft | 7 kts | 31° |
| 2026-04-27 22:32 | 6.50273 | -58.25050 | 101 ft | 7 kts | 321° |
| 2026-04-27 22:32 | 6.50310 | -58.25082 | 100 ft | 7 kts | 313° |
| 2026-04-27 22:33 | 6.50345 | -58.25126 | 100 ft | 9 kts | 302° |
| 2026-04-27 22:33 | 6.50371 | -58.25166 | 98 ft | 6 kts | 317° |
| 2026-04-27 22:33 | 6.50383 | -58.25178 | 100 ft | 0 kts | 315° |